Time;durP1;ratioP1;P1;durP2;ratioP2;P2;SDS_P1;SDS_P2;PMS_P1;PMS_P2;Temp;Humidity;BMP_temperature;BMP_pressure;BME280_temperature;BME280_humidity;BME280_pressure;Samples;Min_cycle;Max_cycle;Signal;HPM_P1;HPM_P2
2022/12/31 00:01:35;;;;;;;7.15;1.90;;;10.50;99.90;;;;;;7403336;19;19918;-68
2022/12/31 00:04:05;;;;;;;2.45;1.00;;;10.40;99.90;;;;;;7402801;19;19914;-68
2022/12/31 00:06:36;;;;;;;8.60;1.98;;;10.50;99.90;;;;;;7403345;19;19921;-68
2022/12/31 00:09:12;;;;;;;5.43;1.50;;;10.50;99.90;;;;;;7402112;19;19923;-68
2022/12/31 00:11:42;;;;;;;4.22;1.23;;;10.50;99.90;;;;;;7401199;19;19919;-66
2022/12/31 00:14:12;;;;;;;4.03;1.67;;;10.40;99.90;;;;;;7402663;19;19922;-67
2022/12/31 00:16:43;;;;;;;3.95;1.60;;;10.50;99.90;;;;;;7402721;19;19918;-67
2022/12/31 00:19:14;;;;;;;4.20;1.50;;;10.50;99.90;;;;;;7402735;19;19925;-67
2022/12/31 00:21:44;;;;;;;5.30;1.95;;;10.40;99.90;;;;;;7402793;19;19911;-66
2022/12/31 00:24:16;;;;;;;4.60;1.90;;;10.50;99.90;;;;;;7402286;19;19974;-67
2022/12/31 00:26:45;;;;;;;4.70;2.15;;;10.40;99.90;;;;;;7402759;19;19918;-67
2022/12/31 00:29:14;;;;;;;6.63;1.73;;;10.40;99.90;;;;;;7403346;19;19925;-67
2022/12/31 00:31:43;;;;;;;3.88;1.60;;;10.50;99.90;;;;;;7402505;19;19946;-67
2022/12/31 00:34:12;;;;;;;2.80;1.38;;;10.40;99.90;;;;;;7401641;19;19919;-67
2022/12/31 00:36:44;;;;;;;4.80;1.25;;;10.50;99.90;;;;;;7402061;19;19919;-67
2022/12/31 00:39:16;;;;;;;3.35;1.20;;;10.50;99.90;;;;;;7401596;19;19915;-67
2022/12/31 00:41:45;;;;;;;3.92;2.00;;;10.40;99.90;;;;;;7401510;19;19918;-68
2022/12/31 00:44:14;;;;;;;3.35;1.77;;;10.40;99.90;;;;;;7404045;19;19926;-67
2022/12/31 00:46:44;;;;;;;4.30;1.30;;;10.30;99.90;;;;;;7408645;19;20319;-67
2022/12/31 00:49:13;;;;;;;3.20;1.33;;;10.40;99.90;;;;;;7407626;19;19922;-67
2022/12/31 00:51:42;;;;;;;4.93;1.58;;;10.40;99.90;;;;;;7408290;19;19918;-67
2022/12/31 00:54:11;;;;;;;2.75;1.40;;;10.40;99.90;;;;;;7408317;19;19936;-67
2022/12/31 00:56:43;;;;;;;3.55;1.20;;;10.40;99.90;;;;;;7408623;19;19930;-67
2022/12/31 00:59:12;;;;;;;3.78;1.40;;;10.30;99.90;;;;;;7408292;19;19970;-67
2022/12/31 01:01:42;;;;;;;3.10;1.20;;;10.50;99.90;;;;;;7412018;19;19946;-67
2022/12/31 01:04:14;;;;;;;3.42;1.38;;;10.30;99.90;;;;;;7407443;19;19918;-67
2022/12/31 01:06:44;;;;;;;2.88;1.33;;;10.30;99.90;;;;;;7408277;19;19921;-67
2022/12/31 01:09:15;;;;;;;2.13;1.35;;;10.20;99.90;;;;;;7407181;19;20340;-66
2022/12/31 01:11:48;;;;;;;4.07;1.40;;;10.20;99.90;;;;;;7408419;19;19942;-67
2022/12/31 01:14:21;;;;;;;2.83;1.48;;;10.20;99.90;;;;;;7408318;19;19921;-67
2022/12/31 01:16:53;;;;;;;4.70;1.42;;;10.10;99.90;;;;;;7408703;19;19931;-67
2022/12/31 01:19:24;;;;;;;2.92;1.73;;;10.20;99.90;;;;;;7407885;19;19922;-67
2022/12/31 01:21:53;;;;;;;2.17;1.70;;;10.20;99.90;;;;;;7407639;19;19915;-67
2022/12/31 01:24:22;;;;;;;2.92;1.70;;;10.20;99.90;;;;;;7407869;19;19921;-67
2022/12/31 01:26:56;;;;;;;2.28;1.70;;;10.20;99.90;;;;;;7407659;19;19911;-67
2022/12/31 01:29:26;;;;;;;4.18;1.77;;;10.10;99.90;;;;;;7406588;19;19944;-67
2022/12/31 01:31:55;;;;;;;2.17;1.90;;;10.00;99.90;;;;;;7407617;19;19934;-67
2022/12/31 01:34:26;;;;;;;4.78;1.80;;;10.10;99.90;;;;;;7406677;19;19914;-67
2022/12/31 01:36:55;;;;;;;4.50;2.10;;;10.20;99.90;;;;;;7407199;19;19946;-67
2022/12/31 01:39:24;;;;;;;3.40;2.20;;;10.10;99.90;;;;;;7406476;19;19927;-67
2022/12/31 01:41:56;;;;;;;5.47;2.45;;;10.30;99.90;;;;;;7407114;19;20274;-67
2022/12/31 01:44:49;;;;;;;3.60;2.42;;;10.20;99.90;;;;;;7405255;19;20289;-67
2022/12/31 01:47:21;;;;;;;3.97;2.10;;;10.20;99.90;;;;;;7407451;19;20245;-67
2022/12/31 01:49:54;;;;;;;4.55;2.22;;;10.20;99.90;;;;;;7405372;19;20309;-68
2022/12/31 01:52:30;;;;;;;3.97;1.80;;;10.10;99.90;;;;;;7407093;19;19925;-67
2022/12/31 01:55:04;;;;;;;5.68;2.20;;;10.20;99.90;;;;;;7401868;19;20463;-66
2022/12/31 01:57:38;;;;;;;4.35;2.13;;;10.20;99.90;;;;;;7406396;19;19914;-66
2022/12/31 02:00:09;;;;;;;4.63;2.35;;;10.20;99.90;;;;;;7410234;19;19919;-66
2022/12/31 02:02:38;;;;;;;5.82;3.22;;;10.20;99.90;;;;;;7406383;19;19934;-67
2022/12/31 02:05:19;;;;;;;7.55;2.55;;;10.40;99.90;;;;;;7406119;19;19965;-67
2022/12/31 02:07:49;;;;;;;3.47;2.10;;;10.30;99.90;;;;;;7405875;19;19915;-66
2022/12/31 02:10:19;;;;;;;6.55;2.20;;;10.30;99.90;;;;;;7405178;19;19974;-66
2022/12/31 02:12:52;;;;;;;4.75;2.20;;;10.20;99.90;;;;;;7406211;19;19978;-66
2022/12/31 02:15:28;;;;;;;4.55;2.60;;;10.30;99.90;;;;;;7405959;19;19974;-67
2022/12/31 02:18:10;;;;;;;4.80;2.28;;;10.30;99.90;;;;;;7406289;19;20352;-67
2022/12/31 02:21:02;;;;;;;4.55;2.20;;;10.30;99.90;;;;;;7406695;19;19919;-67
2022/12/31 02:23:51;;;;;;;4.47;2.28;;;10.30;99.90;;;;;;7405893;19;19914;-67
2022/12/31 02:26:50;;;;;;;5.90;2.00;;;10.40;99.90;;;;;;7406582;19;19910;-67
2022/12/31 02:30:00;;;;;;;6.47;2.25;;;10.30;99.90;;;;;;7408886;19;19926;-67
2022/12/31 02:32:42;;;;;;;5.90;2.10;;;10.30;99.90;;;;;;7409625;19;19911;-67
2022/12/31 02:35:16;;;;;;;4.85;1.83;;;10.30;99.90;;;;;;7405500;19;19918;-67
2022/12/31 02:37:49;;;;;;;3.83;1.80;;;10.30;99.90;;;;;;7405974;19;19974;-68
2022/12/31 02:40:21;;;;;;;5.07;2.38;;;10.30;99.90;;;;;;7404556;19;19982;-68
2022/12/31 02:42:50;;;;;;;;;;;10.20;99.90;;;;;;7408141;19;19926;-68
2022/12/31 02:45:23;;;;;;;6.13;2.00;;;10.20;99.90;;;;;;7404240;19;19936;-68
2022/12/31 02:48:06;;;;;;;4.25;2.20;;;10.20;99.90;;;;;;7405430;19;19928;-68
2022/12/31 02:50:54;;;;;;;4.60;2.20;;;10.30;99.90;;;;;;7404124;19;19919;-68
2022/12/31 02:53:38;;;;;;;3.47;2.08;;;10.20;99.90;;;;;;7405077;19;19919;-68
2022/12/31 02:56:12;;;;;;;3.28;1.48;;;10.10;99.90;;;;;;7403498;19;19941;-68
2022/12/31 03:04:36;;;;;;;3.08;1.50;;;10.20;99.90;;;;;;7404457;19;19918;-68
2022/12/31 03:07:08;;;;;;;5.22;1.67;;;10.30;99.90;;;;;;7403982;19;19915;-69
2022/12/31 03:09:38;;;;;;;6.90;1.70;;;10.10;99.90;;;;;;7404334;19;19914;-69
2022/12/31 03:14:52;;;;;;;3.13;1.65;;;10.20;99.90;;;;;;7404924;19;19915;-69
2022/12/31 03:17:22;;;;;;;3.28;1.70;;;9.40;99.90;;;;;;7404791;19;19910;-68
2022/12/31 03:22:36;;;;;;;3.08;1.35;;;10.00;99.90;;;;;;7404376;19;19938;-68
2022/12/31 03:27:50;;;;;;;2.15;1.00;;;10.10;99.90;;;;;;7404416;19;19917;-68
2022/12/31 03:30:20;;;;;;;4.78;1.23;;;10.10;99.90;;;;;;7406781;19;19915;-68
2022/12/31 03:32:55;;;;;;;3.00;1.10;;;10.00;99.90;;;;;;7403508;19;19991;-67
2022/12/31 03:35:29;;;;;;;2.92;0.90;;;10.00;99.90;;;;;;7403667;19;19918;-68
2022/12/31 03:37:58;;;;;;;1.67;0.90;;;10.00;99.90;;;;;;7404215;19;19918;-68
2022/12/31 03:40:29;;;;;;;3.45;1.00;;;10.10;99.90;;;;;;7403110;19;19950;-68
2022/12/31 03:43:00;;;;;;;2.28;0.85;;;10.00;99.90;;;;;;7403142;19;19911;-68
2022/12/31 03:45:29;;;;;;;2.38;0.95;;;10.10;99.90;;;;;;7402176;19;19919;-69
2022/12/31 03:47:58;;;;;;;3.85;1.50;;;9.90;99.90;;;;;;7403884;19;19942;-68
2022/12/31 03:50:30;;;;;;;3.13;0.80;;;9.90;99.90;;;;;;7403018;19;19911;-69
2022/12/31 03:52:59;;;;;;;7.28;0.88;;;9.90;99.90;;;;;;7403832;19;19921;-68
2022/12/31 03:55:29;;;;;;;2.70;0.60;;;9.90;99.90;;;;;;7403469;19;19966;-68
2022/12/31 03:57:58;;;;;;;1.95;1.10;;;9.90;99.90;;;;;;7403266;19;19918;-68
2022/12/31 04:00:27;;;;;;;2.88;0.70;;;9.90;99.90;;;;;;7403194;19;19921;-69
2022/12/31 04:02:56;;;;;;;3.25;0.80;;;9.80;99.90;;;;;;7402292;19;20267;-68
2022/12/31 04:05:25;;;;;;;1.40;0.70;;;9.90;99.90;;;;;;7403151;19;19911;-68
2022/12/31 04:07:57;;;;;;;2.45;0.73;;;9.40;99.90;;;;;;7403076;19;19950;-68
2022/12/31 04:10:26;;;;;;;2.25;0.80;;;9.90;99.90;;;;;;7402336;19;20343;-69
2022/12/31 04:12:55;;;;;;;1.67;0.60;;;9.80;99.90;;;;;;7402680;19;20364;-68
2022/12/31 04:15:25;;;;;;;1.95;0.50;;;9.80;99.90;;;;;;7402729;19;19919;-68
2022/12/31 04:17:54;;;;;;;2.80;0.63;;;9.80;99.90;;;;;;7403368;19;19974;-69
2022/12/31 04:20:23;;;;;;;0.88;0.47;;;9.70;99.90;;;;;;7409441;19;19911;-68
2022/12/31 04:22:52;;;;;;;5.00;0.65;;;8.60;99.90;;;;;;7409054;19;19938;-68
2022/12/31 04:25:24;;;;;;;2.03;0.47;;;9.70;99.90;;;;;;7408947;19;19921;-68
2022/12/31 04:27:53;;;;;;;0.63;0.40;;;9.70;99.90;;;;;;7409132;19;19926;-68
2022/12/31 04:30:21;;;;;;;2.38;0.60;;;9.70;99.90;;;;;;7407992;19;19915;-68
2022/12/31 04:32:50;;;;;;;2.22;0.40;;;9.70;99.90;;;;;;7408934;19;19939;-68
2022/12/31 04:35:20;;;;;;;3.28;0.50;;;9.60;99.90;;;;;;7409180;19;19970;-69
2022/12/31 04:37:49;;;;;;;2.70;0.52;;;9.70;99.90;;;;;;7408888;19;19914;-68
2022/12/31 04:40:18;;;;;;;2.47;0.40;;;9.60;99.90;;;;;;7407180;19;20336;-68
2022/12/31 04:42:50;;;;;;;2.22;0.35;;;9.60;99.90;;;;;;7408829;19;19939;-68
2022/12/31 04:45:19;;;;;;;1.73;0.55;;;9.70;99.90;;;;;;7406250;19;19915;-69
2022/12/31 04:47:48;;;;;;;2.17;0.60;;;9.60;99.90;;;;;;7408294;19;20384;-68
2022/12/31 04:50:17;;;;;;;1.23;0.70;;;9.50;99.90;;;;;;7407969;19;19978;-68
2022/12/31 04:52:46;;;;;;;2.17;0.60;;;9.50;99.90;;;;;;7408819;19;19918;-68
2022/12/31 04:55:15;;;;;;;1.45;0.52;;;9.60;99.90;;;;;;7409376;19;20359;-68
2022/12/31 04:57:44;;;;;;;2.83;0.80;;;9.50;99.90;;;;;;7408459;19;19956;-68
2022/12/31 05:00:16;;;;;;;2.75;0.80;;;9.40;99.90;;;;;;7407938;19;19921;-68
2022/12/31 05:02:51;;;;;;;1.63;0.60;;;9.40;99.90;;;;;;7407431;19;19952;-68
2022/12/31 05:05:20;;;;;;;1.15;0.80;;;9.50;99.90;;;;;;7408596;19;19994;-68
2022/12/31 05:07:49;;;;;;;1.58;0.70;;;9.40;99.90;;;;;;7407882;19;19914;-67
2022/12/31 05:10:18;;;;;;;2.05;0.77;;;9.50;99.90;;;;;;7407521;19;19923;-68
2022/12/31 05:12:47;;;;;;;2.85;0.80;;;9.50;99.90;;;;;;7407954;19;19925;-68
2022/12/31 05:15:19;;;;;;;1.35;0.70;;;9.40;99.90;;;;;;7408200;19;19966;-68
2022/12/31 05:17:48;;;;;;;1.92;0.85;;;9.40;99.90;;;;;;7407933;19;19922;-68
2022/12/31 05:20:18;;;;;;;2.10;1.17;;;9.60;99.90;;;;;;7408165;19;19923;-68
2022/12/31 05:22:47;;;;;;;1.20;0.80;;;9.40;99.90;;;;;;7408272;19;19918;-68
2022/12/31 05:25:16;;;;;;;3.03;1.35;;;9.50;99.90;;;;;;7407493;19;19921;-68
2022/12/31 05:27:45;;;;;;;2.03;1.08;;;9.50;99.90;;;;;;7410268;19;19922;-68
2022/12/31 05:30:18;;;;;;;1.77;0.85;;;9.50;99.90;;;;;;7406749;19;20005;-67
2022/12/31 05:32:47;;;;;;;2.67;1.10;;;9.40;99.90;;;;;;7407226;19;20008;-68
2022/12/31 05:35:16;;;;;;;2.22;1.20;;;9.50;99.90;;;;;;7407532;19;19995;-68
2022/12/31 05:37:45;;;;;;;1.15;1.00;;;9.50;99.90;;;;;;7408250;19;19911;-68
2022/12/31 05:40:14;;;;;;;1.80;0.93;;;9.40;99.90;;;;;;7406364;19;19930;-68
2022/12/31 05:42:43;;;;;;;3.22;1.30;;;9.40;99.90;;;;;;7407431;19;19946;-68
2022/12/31 05:45:14;;;;;;;4.00;1.10;;;9.60;99.90;;;;;;7405799;19;19936;-68
2022/12/31 05:47:46;;;;;;;2.28;0.90;;;7.60;99.90;;;;;;7407391;19;19933;-68
2022/12/31 05:50:17;;;;;;;3.42;1.48;;;9.40;99.90;;;;;;7406467;19;20258;-68
2022/12/31 05:52:56;;;;;;;2.28;1.10;;;9.30;99.90;;;;;;7406759;19;19918;-68
2022/12/31 05:55:26;;;;;;;1.42;0.90;;;9.40;99.90;;;;;;7409911;19;19922;-68
2022/12/31 05:57:55;;;;;;;2.28;1.05;;;9.40;99.90;;;;;;7407036;19;19929;-68
2022/12/31 06:00:24;;;;;;;3.00;0.85;;;9.40;99.90;;;;;;7406627;19;19919;-68
2022/12/31 06:02:56;;;;;;;1.13;0.95;;;9.40;99.90;;;;;;7406025;19;19927;-68
2022/12/31 06:05:25;;;;;;;2.60;0.98;;;9.40;99.90;;;;;;7406465;19;20335;-68
2022/12/31 06:07:54;;;;;;;1.83;1.00;;;9.40;99.90;;;;;;7406624;19;19936;-68
2022/12/31 06:10:35;;;;;;;3.00;1.00;;;9.40;99.90;;;;;;7406174;19;20012;-68
2022/12/31 06:13:05;;;;;;;4.00;1.10;;;9.40;99.90;;;;;;7405948;19;19981;-68
2022/12/31 06:15:42;;;;;;;2.35;0.90;;;9.50;99.90;;;;;;7405950;19;19918;-67
2022/12/31 06:18:14;;;;;;;1.98;0.77;;;9.40;99.90;;;;;;7405947;19;19936;-67
2022/12/31 06:20:43;;;;;;;2.17;1.00;;;9.30;99.90;;;;;;7405877;19;20012;-67
2022/12/31 06:23:12;;;;;;;3.67;0.93;;;9.50;99.90;;;;;;7405706;19;20295;-67
2022/12/31 06:25:41;;;;;;;2.10;0.90;;;9.40;99.90;;;;;;7409325;19;19938;-67
2022/12/31 06:28:11;;;;;;;4.18;1.00;;;9.40;99.90;;;;;;7405532;19;20269;-68
2022/12/31 06:30:40;;;;;;;0.98;0.90;;;9.40;99.90;;;;;;7405859;19;19914;-68
2022/12/31 06:33:09;;;;;;;1.65;0.90;;;9.40;99.90;;;;;;7405630;19;20332;-67
2022/12/31 06:35:40;;;;;;;1.73;0.70;;;9.40;99.90;;;;;;7405985;19;19977;-67
2022/12/31 06:38:10;;;;;;;2.72;1.00;;;9.30;99.90;;;;;;7405446;19;19914;-69
2022/12/31 06:40:39;;;;;;;2.83;0.98;;;9.40;99.90;;;;;;7403720;19;19922;-68
2022/12/31 06:43:08;;;;;;;1.77;0.90;;;9.40;99.90;;;;;;7404880;19;19918;-68
2022/12/31 06:45:38;;;;;;;2.22;0.98;;;8.70;99.90;;;;;;7404175;19;19915;-67
2022/12/31 06:48:08;;;;;;;1.20;0.90;;;9.40;99.90;;;;;;7405360;19;20332;-67
2022/12/31 06:50:37;;;;;;;2.55;1.48;;;9.40;99.90;;;;;;7405252;19;19935;-68
2022/12/31 06:53:08;;;;;;;2.03;1.00;;;9.40;99.90;;;;;;7405986;19;19966;-68
2022/12/31 06:55:38;;;;;;;3.00;1.20;;;9.40;99.90;;;;;;7404958;19;20241;-67
2022/12/31 06:58:07;;;;;;;3.03;1.50;;;9.40;99.90;;;;;;7405782;19;19950;-67
2022/12/31 07:00:37;;;;;;;1.55;1.30;;;9.40;99.90;;;;;;7405210;19;19923;-67
2022/12/31 07:03:24;;;;;;;4.75;1.23;;;9.50;99.90;;;;;;7404495;19;19915;-67
2022/12/31 07:06:00;;;;;;;1.70;1.40;;;10.40;99.90;;;;;;7404846;19;20000;-67
2022/12/31 07:08:44;;;;;;;2.95;1.40;;;9.30;99.90;;;;;;7404611;19;20259;-68
2022/12/31 07:11:19;;;;;;;3.97;1.60;;;9.40;99.90;;;;;;7404213;19;19990;-67
2022/12/31 07:14:12;;;;;;;2.65;1.38;;;9.30;99.90;;;;;;7404687;19;19993;-67
2022/12/31 07:16:54;;;;;;;1.60;1.23;;;9.40;99.90;;;;;;7403920;19;19935;-68
2022/12/31 07:19:36;;;;;;;2.70;1.70;;;9.30;99.90;;;;;;7404718;19;19938;-67
2022/12/31 07:22:13;;;;;;;1.67;1.30;;;9.40;99.90;;;;;;7404122;19;19922;-67
2022/12/31 07:24:46;;;;;;;1.13;0.98;;;9.30;99.90;;;;;;7408026;19;20020;-67
2022/12/31 07:27:32;;;;;;;1.50;0.80;;;9.30;99.90;;;;;;7404188;19;19992;-68
2022/12/31 07:30:06;;;;;;;1.33;0.77;;;9.30;99.90;;;;;;7404279;19;19918;-68
2022/12/31 07:32:52;;;;;;;2.10;0.85;;;9.30;99.90;;;;;;7402753;19;19911;-68
2022/12/31 07:35:28;;;;;;;1.27;0.70;;;9.30;99.90;;;;;;7404660;19;19907;-68
2022/12/31 07:38:03;;;;;;;0.85;0.50;;;9.40;99.90;;;;;;7403634;19;19921;-67
2022/12/31 07:40:47;;;;;;;0.90;0.70;;;9.40;99.90;;;;;;7403225;19;19926;-68
2022/12/31 07:43:30;;;;;;;1.58;0.90;;;9.40;99.90;;;;;;7403598;19;19946;-68
2022/12/31 07:46:08;;;;;;;2.25;0.73;;;9.30;99.90;;;;;;7404169;19;19962;-67
2022/12/31 07:48:37;;;;;;;1.98;1.15;;;9.30;99.90;;;;;;7403007;19;20341;-68
2022/12/31 07:51:11;;;;;;;1.33;0.70;;;9.30;99.90;;;;;;7403248;19;19981;-68
2022/12/31 07:54:00;;;;;;;1.52;0.73;;;9.40;99.90;;;;;;7405054;19;20332;-67
2022/12/31 07:56:32;;;;;;;3.90;1.00;;;9.30;99.90;;;;;;7403463;19;19917;-67
2022/12/31 07:59:09;;;;;;;3.20;0.77;;;9.40;99.90;;;;;;7403918;19;19954;-67
2022/12/31 08:01:47;;;;;;;2.45;1.15;;;9.20;99.90;;;;;;7401220;19;19911;-67
2022/12/31 08:04:28;;;;;;;1.85;0.70;;;9.20;99.90;;;;;;7403243;19;19950;-68
2022/12/31 08:07:04;;;;;;;2.20;0.93;;;9.20;99.90;;;;;;7402899;19;20361;-68
2022/12/31 08:09:46;;;;;;;2.13;0.70;;;9.20;99.90;;;;;;7402960;19;20318;-68
2022/12/31 08:12:18;;;;;;;1.63;0.98;;;9.20;99.90;;;;;;7402273;19;19911;-68
2022/12/31 08:14:49;;;;;;;1.60;1.00;;;9.20;99.90;;;;;;7402524;19;20231;-67
2022/12/31 08:17:20;;;;;;;3.38;1.23;;;9.40;99.90;;;;;;7402887;19;19914;-68
2022/12/31 08:19:51;;;;;;;2.38;1.17;;;9.40;99.90;;;;;;7402275;19;19931;-68
2022/12/31 08:22:42;;;;;;;1.60;0.90;;;9.30;99.90;;;;;;7404875;19;19918;-67
2022/12/31 08:25:22;;;;;;;2.50;1.40;;;9.30;99.90;;;;;;7402258;19;19922;-67
2022/12/31 08:28:02;;;;;;;4.15;1.77;;;9.30;99.90;;;;;;7402853;19;20394;-67
2022/12/31 08:30:41;;;;;;;2.63;1.77;;;9.30;99.90;;;;;;7401899;19;19914;-68
2022/12/31 08:33:15;;;;;;;1.52;1.27;;;9.40;99.90;;;;;;7399899;19;19923;-68
2022/12/31 08:36:02;;;;;;;1.73;1.33;;;9.30;99.90;;;;;;7402386;19;19938;-68
2022/12/31 08:38:39;;;;;;;1.75;1.23;;;9.30;99.90;;;;;;7402211;19;19930;-68
2022/12/31 08:41:19;;;;;;;2.75;1.42;;;9.40;99.90;;;;;;7400075;19;19921;-68
2022/12/31 08:43:58;;;;;;;;;;;9.30;99.90;;;;;;7400969;19;19982;-68
2022/12/31 08:46:33;;;;;;;2.33;1.30;;;9.40;99.90;;;;;;7401160;19;20276;-67
2022/12/31 08:49:02;;;;;;;1.67;1.10;;;9.30;99.90;;;;;;7401392;19;19921;-68
2022/12/31 08:51:32;;;;;;;1.73;1.40;;;9.30;99.90;;;;;;7401810;19;19923;-68
2022/12/31 08:54:14;;;;;;;2.20;0.98;;;9.30;99.90;;;;;;7401744;19;20285;-68
2022/12/31 08:56:49;;;;;;;1.42;1.10;;;9.40;99.90;;;;;;7401557;19;20252;-68
2022/12/31 08:59:37;;;;;;;2.35;0.90;;;9.40;99.90;;;;;;7401208;19;19915;-67
2022/12/31 09:02:28;;;;;;;2.40;1.27;;;9.50;99.90;;;;;;7400959;19;19918;-68
2022/12/31 09:05:06;;;;;;;6.72;1.33;;;9.60;99.90;;;;;;7403641;19;19914;-67
2022/12/31 09:07:39;;;;;;;1.30;0.80;;;9.50;99.90;;;;;;7408099;19;19914;-68
2022/12/31 09:10:19;;;;;;;2.63;1.02;;;9.50;99.90;;;;;;7408444;19;19970;-68
2022/12/31 09:13:00;;;;;;;1.85;1.05;;;9.70;99.90;;;;;;7406260;19;19915;-67
2022/12/31 09:15:35;;;;;;;1.70;1.10;;;9.60;99.90;;;;;;7407674;19;19919;-67
2022/12/31 09:18:05;;;;;;;4.18;1.67;;;9.60;99.90;;;;;;7408321;19;19974;-68
2022/12/31 09:20:36;;;;;;;3.15;1.58;;;9.70;99.90;;;;;;7407423;19;19911;-68
2022/12/31 09:23:08;;;;;;;2.53;1.50;;;9.70;99.90;;;;;;7409261;19;19919;-68
2022/12/31 09:25:43;;;;;;;3.65;1.23;;;9.70;99.90;;;;;;7407291;19;20353;-68
2022/12/31 09:28:18;;;;;;;2.33;1.10;;;9.80;99.90;;;;;;7407354;19;20280;-68
2022/12/31 09:30:58;;;;;;;2.63;1.10;;;9.80;99.90;;;;;;7407659;19;19949;-68
2022/12/31 09:33:37;;;;;;;2.10;1.38;;;9.90;99.90;;;;;;7404805;19;19945;-69
2022/12/31 09:36:09;;;;;;;1.83;1.10;;;10.00;99.90;;;;;;7406935;19;19918;-68
2022/12/31 09:38:45;;;;;;;3.67;1.08;;;9.90;99.90;;;;;;7407020;19;19918;-68
2022/12/31 09:41:17;;;;;;;2.00;1.00;;;10.10;99.90;;;;;;7404939;19;19926;-69
2022/12/31 09:44:27;;;;;;;2.28;1.23;;;10.30;99.90;;;;;;7406540;19;19915;-68
2022/12/31 09:47:36;;;;;;;1.45;0.98;;;10.40;99.90;;;;;;7406866;19;19918;-68
2022/12/31 09:50:29;;;;;;;1.55;0.98;;;10.40;99.90;;;;;;7408135;19;19935;-68
2022/12/31 09:53:40;;;;;;;1.48;0.90;;;10.50;99.90;;;;;;7405917;19;19922;-68
2022/12/31 09:56:17;;;;;;;1.40;0.93;;;10.60;99.90;;;;;;7406457;19;19971;-68
2022/12/31 09:58:52;;;;;;;1.00;0.77;;;10.70;99.90;;;;;;7406802;19;19924;-68
2022/12/31 10:01:44;;;;;;;1.48;0.93;;;10.80;99.90;;;;;;7406608;19;19926;-69
2022/12/31 10:04:49;;;;;;;1.23;0.50;;;10.80;99.90;;;;;;7406089;19;19926;-68
2022/12/31 10:07:40;;;;;;;0.73;0.55;;;11.00;99.90;;;;;;7406970;19;19926;-68
2022/12/31 10:10:18;;;;;;;1.23;0.70;;;11.00;99.90;;;;;;7407413;19;19937;-68
2022/12/31 10:13:07;;;;;;;;;;;11.00;99.90;;;;;;7405536;19;19915;-68
2022/12/31 10:16:06;;;;;;;1.10;0.50;;;11.00;99.90;;;;;;7403106;19;20245;-68
2022/12/31 10:18:54;;;;;;;0.95;0.50;;;11.10;99.90;;;;;;7404990;19;19923;-68
2022/12/31 10:21:43;;;;;;;2.05;0.50;;;11.10;99.90;;;;;;7407333;19;19919;-68
2022/12/31 10:24:30;;;;;;;0.40;0.30;;;11.30;99.90;;;;;;7405862;19;20264;-68
2022/12/31 10:27:27;;;;;;;0.30;0.25;;;11.50;99.90;;;;;;7405418;19;19926;-68
2022/12/31 10:30:03;;;;;;;0.60;0.30;;;11.50;99.90;;;;;;7405834;19;19919;-68
2022/12/31 10:32:41;;;;;;;1.08;0.35;;;11.50;99.90;;;;;;7405108;19;19946;-68
2022/12/31 10:35:28;;;;;;;1.15;0.40;;;11.60;99.90;;;;;;7405352;19;19938;-67
2022/12/31 10:38:15;;;;;;;0.70;0.20;;;11.60;99.90;;;;;;7405495;19;19919;-68
2022/12/31 10:41:22;;;;;;;1.65;0.43;;;11.80;99.90;;;;;;7404407;19;19919;-67
2022/12/31 10:44:21;;;;;;;0.85;0.30;;;11.80;99.90;;;;;;7405002;19;20252;-68
2022/12/31 10:47:22;;;;;;;0.82;0.30;;;11.70;99.90;;;;;;7405932;19;19966;-67
2022/12/31 10:50:26;;;;;;;1.27;0.35;;;11.80;99.90;;;;;;7404978;19;20242;-68
2022/12/31 10:53:28;;;;;;;2.17;0.40;;;11.80;99.90;;;;;;7403775;19;20380;-67
2022/12/31 10:56:27;;;;;;;1.02;0.32;;;11.70;99.90;;;;;;7405372;19;20265;-67
2022/12/31 10:59:34;;;;;;;1.10;0.47;;;11.80;99.90;;;;;;7405619;19;20334;-67
2022/12/31 11:02:18;;;;;;;1.48;0.65;;;11.90;99.90;;;;;;7405155;19;19938;-67
2022/12/31 11:05:22;;;;;;;3.17;0.50;;;11.90;99.90;;;;;;7404774;19;19939;-67
2022/12/31 11:08:11;;;;;;;3.00;0.68;;;12.00;99.90;;;;;;7404812;19;19938;-68
2022/12/31 11:11:00;;;;;;;3.65;0.55;;;12.10;99.90;;;;;;7404332;19;19911;-67
2022/12/31 11:14:01;;;;;;;1.27;0.50;;;12.10;99.90;;;;;;7403477;19;19978;-67
2022/12/31 11:16:53;;;;;;;17.58;4.13;;;12.00;99.90;;;;;;7404293;19;19925;-68
2022/12/31 11:19:31;;;;;;;2.53;0.68;;;12.10;99.90;;;;;;7404147;19;19922;-68
2022/12/31 11:22:18;;;;;;;3.25;0.38;;;12.00;99.90;;;;;;7403644;19;19981;-67
2022/12/31 11:25:13;;;;;;;3.08;1.02;;;12.10;99.90;;;;;;7403915;19;19914;-68
2022/12/31 11:28:00;;;;;;;3.00;0.55;;;12.20;99.90;;;;;;7402971;19;20333;-67
2022/12/31 11:30:39;;;;;;;1.33;0.40;;;12.20;99.90;;;;;;7403929;19;19932;-68
2022/12/31 11:33:25;;;;;;;2.53;0.82;;;12.10;99.90;;;;;;7402651;19;19922;-67
2022/12/31 11:36:17;;;;;;;4.38;1.00;;;12.20;99.90;;;;;;7403408;19;20329;-67
2022/12/31 11:38:53;;;;;;;2.47;0.70;;;12.20;99.90;;;;;;7408639;19;19939;-67
2022/12/31 11:41:30;;;;;;;2.17;0.70;;;12.20;99.90;;;;;;7402468;19;19938;-67
2022/12/31 11:44:19;;;;;;;4.13;0.63;;;12.40;99.90;;;;;;7402208;19;19945;-68
2022/12/31 11:46:57;;;;;;;;;;;12.20;99.90;;;;;;7406342;19;20242;-67
2022/12/31 11:49:48;;;;;;;4.53;0.90;;;12.20;99.90;;;;;;7401454;19;19926;-67
2022/12/31 11:52:40;;;;;;;1.83;0.30;;;12.30;99.90;;;;;;7403060;19;19911;-67
2022/12/31 11:55:29;;;;;;;2.55;0.60;;;12.20;99.90;;;;;;7402977;19;19988;-68
2022/12/31 11:58:04;;;;;;;3.20;0.60;;;12.10;99.90;;;;;;7403238;19;19919;-67
2022/12/31 12:00:36;;;;;;;3.17;0.50;;;12.20;99.90;;;;;;7403168;19;20328;-68
2022/12/31 12:03:07;;;;;;;2.63;0.50;;;12.20;99.90;;;;;;7402794;19;20271;-68
2022/12/31 12:05:37;;;;;;;1.40;0.50;;;12.10;99.90;;;;;;7403090;19;19914;-67
2022/12/31 12:08:06;;;;;;;3.13;0.52;;;12.90;99.90;;;;;;7403065;19;19982;-67
2022/12/31 12:10:42;;;;;;;1.70;0.50;;;12.10;99.90;;;;;;7402983;19;20286;-68
2022/12/31 12:13:21;;;;;;;2.08;0.43;;;12.20;99.90;;;;;;7402323;19;20333;-68
2022/12/31 12:15:56;;;;;;;7.53;5.93;;;12.00;99.90;;;;;;7402794;19;19915;-67
2022/12/31 12:18:31;;;;;;;2.53;0.55;;;12.00;99.90;;;;;;7402383;19;19918;-68
2022/12/31 12:21:11;;;;;;;3.08;1.17;;;11.90;99.90;;;;;;7404610;19;19990;-67
2022/12/31 12:23:57;;;;;;;2.47;0.50;;;12.00;99.90;;;;;;7401651;19;19915;-68
2022/12/31 12:26:34;;;;;;;2.35;0.50;;;11.90;99.90;;;;;;7402633;19;20359;-68
2022/12/31 12:29:12;;;;;;;2.90;0.50;;;11.90;99.90;;;;;;7402455;19;19918;-67
2022/12/31 12:31:44;;;;;;;2.90;0.40;;;12.00;99.90;;;;;;7402331;19;20247;-68
2022/12/31 12:34:25;;;;;;;2.33;1.10;;;11.80;99.90;;;;;;7400042;19;19946;-68
2022/12/31 12:36:54;;;;;;;0.73;0.50;;;11.90;99.90;;;;;;7402161;19;19914;-68
2022/12/31 12:39:26;;;;;;;0.93;0.50;;;11.80;99.90;;;;;;7402475;19;19919;-67
2022/12/31 12:42:06;;;;;;;1.92;0.70;;;11.80;99.90;;;;;;7408724;19;19915;-67
2022/12/31 12:44:37;;;;;;;1.85;0.50;;;11.80;99.90;;;;;;7406821;19;19952;-67
2022/12/31 12:47:16;;;;;;;1.33;0.80;;;11.80;99.90;;;;;;7408511;19;19915;-68
2022/12/31 12:49:48;;;;;;;2.88;0.80;;;11.70;99.90;;;;;;7412530;19;19966;-68
2022/12/31 12:52:28;;;;;;;;;;;11.80;99.90;;;;;;7410585;19;20317;-67
2022/12/31 12:55:07;;;;;;;4.38;1.10;;;11.80;99.90;;;;;;7408671;19;19994;-67
2022/12/31 12:57:50;;;;;;;4.57;1.73;;;11.80;99.90;;;;;;7406670;19;19919;-67
2022/12/31 13:00:23;;;;;;;3.20;1.58;;;11.90;99.90;;;;;;7408134;19;19927;-67
2022/12/31 13:03:35;;;;;;;3.63;1.15;;;12.00;99.90;;;;;;7407266;19;19918;-68
2022/12/31 13:06:20;;;;;;;;;;;12.00;99.90;;;;;;7407717;19;19921;-69
2022/12/31 13:09:09;;;;;;;3.70;1.50;;;12.10;99.90;;;;;;7408003;19;19911;-69
2022/12/31 13:11:47;;;;;;;3.35;1.50;;;12.10;99.90;;;;;;7407511;19;20341;-68
2022/12/31 13:14:30;;;;;;;3.05;1.00;;;11.90;99.90;;;;;;7405702;19;19966;-68
2022/12/31 13:17:07;;;;;;;7.60;3.15;;;12.10;99.90;;;;;;7407766;19;20376;-68
2022/12/31 13:19:45;;;;;;;3.28;0.90;;;12.20;99.90;;;;;;7408398;19;19948;-67
2022/12/31 13:22:21;;;;;;;3.53;1.48;;;12.20;99.90;;;;;;7406142;19;19923;-68
2022/12/31 13:25:00;;;;;;;4.20;1.20;;;12.30;99.90;;;;;;7405761;19;19925;-68
2022/12/31 13:27:35;;;;;;;2.72;0.93;;;12.30;99.90;;;;;;7405304;19;20314;-68
2022/12/31 13:30:08;;;;;;;2.55;1.30;;;12.30;99.90;;;;;;7405127;19;19925;-67
2022/12/31 13:32:42;;;;;;;2.20;1.00;;;12.30;99.90;;;;;;7405664;19;20321;-68
2022/12/31 13:35:26;;;;;;;2.58;0.68;;;12.20;99.90;;;;;;7406954;19;19915;-68
2022/12/31 13:38:03;;;;;;;3.53;1.17;;;12.30;99.90;;;;;;7406808;19;19950;-68
2022/12/31 13:40:36;;;;;;;3.72;1.15;;;12.30;99.90;;;;;;7405275;19;20340;-68
2022/12/31 13:43:14;;;;;;;3.75;1.30;;;12.20;99.90;;;;;;7406212;19;20361;-68
2022/12/31 13:45:47;;;;;;;3.03;0.95;;;12.30;99.90;;;;;;7403888;19;19938;-69
2022/12/31 13:48:21;;;;;;;3.47;1.38;;;12.10;99.90;;;;;;7409491;19;19918;-68
2022/12/31 13:50:59;;;;;;;5.00;1.15;;;12.20;99.90;;;;;;7406265;19;19915;-68
2022/12/31 13:53:38;;;;;;;5.63;0.98;;;12.20;99.90;;;;;;7405751;19;19919;-68
2022/12/31 13:56:14;;;;;;;4.13;1.27;;;12.00;99.90;;;;;;7407292;19;19921;-68